createdAt,value
2022-08-22T00:01:03.602Z,23.62
2022-08-22T00:02:45.363Z,28.00
2022-08-22T00:03:07.040Z,26.22
2022-08-22T00:04:01.574Z,25.70
2022-08-22T00:06:54.427Z,25.97
2022-08-22T00:09:29.974Z,24.69
2022-08-22T00:12:08.813Z,23.82
2022-08-22T00:14:53.867Z,23.20
2022-08-22T00:17:34.227Z,23.63
2022-08-22T00:20:28.288Z,25.83
2022-08-22T00:23:12.662Z,26.19
2022-08-22T00:25:59.472Z,24.93
2022-08-22T00:28:53.759Z,23.95
2022-08-22T00:31:22.137Z,23.25
2022-08-22T00:33:53.280Z,23.88
2022-08-22T00:36:32.412Z,25.92
2022-08-22T00:39:24.958Z,25.95
2022-08-22T00:42:07.160Z,24.70
2022-08-22T00:44:44.345Z,23.81
2022-08-22T00:47:38.785Z,23.19
2022-08-22T00:50:36.093Z,23.72
2022-08-22T00:53:35.088Z,26.07
2022-08-22T00:56:32.549Z,25.74
2022-08-22T00:59:25.606Z,24.47
2022-08-22T01:02:32.204Z,23.60
2022-08-22T01:05:22.067Z,24.03
2022-08-22T01:08:15.634Z,26.16
2022-08-22T01:11:01.829Z,25.74
2022-08-22T01:14:04.309Z,24.57
2022-08-22T01:17:05.045Z,23.66
2022-08-22T01:19:49.294Z,23.03
2022-08-22T01:22:41.536Z,23.45
2022-08-22T01:25:22.387Z,25.81
2022-08-22T01:28:02.867Z,25.85
2022-08-22T01:30:49.473Z,24.68
2022-08-22T01:33:38.949Z,23.69
2022-08-22T01:36:28.830Z,23.78
2022-08-22T01:39:02.740Z,25.92
2022-08-22T01:41:52.416Z,26.04
2022-08-22T01:44:26.531Z,24.74
2022-08-22T01:47:14.876Z,23.82
2022-08-22T01:50:13.464Z,23.19
2022-08-22T01:52:51.095Z,24.79
2022-08-22T01:55:24.868Z,26.19
2022-08-22T01:58:19.178Z,25.27
2022-08-22T02:01:29.002Z,24.08
2022-08-22T02:04:11.410Z,23.22
2022-08-22T02:06:46.136Z,23.81
2022-08-22T02:09:38.583Z,25.91
2022-08-22T02:12:42.296Z,25.89
2022-08-22T02:15:17.629Z,24.55
2022-08-22T02:17:54.814Z,23.71
2022-08-22T02:20:35.788Z,23.77
2022-08-22T02:23:23.726Z,25.90
2022-08-22T02:26:01.426Z,26.15
2022-08-22T02:28:56.628Z,25.03
2022-08-22T02:31:39.453Z,24.03
2022-08-22T02:34:34.284Z,23.37
2022-08-22T02:37:13.787Z,23.82
2022-08-22T02:39:46.230Z,25.93
2022-08-22T02:42:49.495Z,26.04
2022-08-22T02:45:59.819Z,24.71
2022-08-22T02:48:44.019Z,23.69
2022-08-22T02:51:19.821Z,23.82
2022-08-22T02:54:39.095Z,25.85
2022-08-22T02:57:14.484Z,25.90
2022-08-22T03:00:31.448Z,24.76
2022-08-22T03:03:26.970Z,23.74
2022-08-22T03:06:03.382Z,24.03
2022-08-22T03:08:53.219Z,26.10
2022-08-22T03:11:35.933Z,26.11
2022-08-22T03:14:12.141Z,24.93
2022-08-22T03:16:49.997Z,24.06
2022-08-22T03:19:23.394Z,23.46
2022-08-22T03:22:16.348Z,24.05
2022-08-22T03:24:56.042Z,26.29
2022-08-22T03:27:32.567Z,26.00
2022-08-22T03:30:16.929Z,24.88
2022-08-22T03:32:59.738Z,24.00
2022-08-22T03:35:28.060Z,23.34
2022-08-22T03:38:20.759Z,23.56
2022-08-22T03:41:19.377Z,25.89
2022-08-22T03:44:02.676Z,26.26
2022-08-22T03:46:52.867Z,25.02
2022-08-22T03:49:46.230Z,24.00
2022-08-22T03:53:02.278Z,24.20
2022-08-22T03:55:49.036Z,26.48
2022-08-22T03:58:50.081Z,25.95
2022-08-22T04:01:39.366Z,24.70
2022-08-22T04:04:19.201Z,23.89
2022-08-22T04:07:31.457Z,24.16
2022-08-22T04:10:19.238Z,26.51
2022-08-22T04:12:56.423Z,26.03
2022-08-22T04:15:36.783Z,24.96
2022-08-22T04:18:42.075Z,24.14
2022-08-22T04:21:48.142Z,24.47
2022-08-22T04:24:42.374Z,26.55
2022-08-22T04:27:35.328Z,25.73
2022-08-22T04:30:03.505Z,24.43
2022-08-22T04:32:36.797Z,23.90
2022-08-22T04:35:30.044Z,25.47
2022-08-22T04:38:20.794Z,26.44
2022-08-22T04:40:55.828Z,25.18
2022-08-22T04:43:33.606Z,24.12
2022-08-22T04:46:36.707Z,24.20
2022-08-22T04:49:13.686Z,26.24
2022-08-22T04:51:50.342Z,25.87
2022-08-22T04:54:42.114Z,24.62
2022-08-22T04:57:32.361Z,23.82
2022-08-22T05:00:04.170Z,25.42
2022-08-22T05:02:37.924Z,26.63
2022-08-22T05:05:14.598Z,25.78
2022-08-22T05:07:48.609Z,24.60
2022-08-22T05:10:21.635Z,23.94
2022-08-22T05:13:00.830Z,25.38
2022-08-22T05:15:37.196Z,26.48
2022-08-22T05:18:10.126Z,25.50
2022-08-22T05:20:41.226Z,24.44
2022-08-22T05:23:19.432Z,24.42
2022-08-22T05:25:51.600Z,26.27
2022-08-22T05:28:37.284Z,26.52
2022-08-22T05:31:13.036Z,25.33
2022-08-22T05:33:52.064Z,24.40
2022-08-22T05:36:27.610Z,24.52
2022-08-22T05:39:12.066Z,26.50
2022-08-22T05:41:41.910Z,26.77
2022-08-22T05:44:21.521Z,25.68
2022-08-22T05:47:04.176Z,24.68
2022-08-22T05:49:45.313Z,24.69
2022-08-22T05:52:22.584Z,26.66
2022-08-22T05:55:00.847Z,26.81
2022-08-22T05:57:47.518Z,25.54
2022-08-22T06:00:22.352Z,24.48
2022-08-22T06:03:33.632Z,24.95
2022-08-22T06:06:19.933Z,26.69
2022-08-22T06:09:06.981Z,25.75
2022-08-22T06:11:51.792Z,24.59
2022-08-22T06:14:40.876Z,24.58
2022-08-22T06:17:15.648Z,26.68
2022-08-22T06:19:48.080Z,26.86
2022-08-22T06:22:27.607Z,25.77
2022-08-22T06:25:13.035Z,24.83
2022-08-22T06:27:43.423Z,24.19
2022-08-22T06:30:15.571Z,25.06
2022-08-22T06:33:00.210Z,26.95
2022-08-22T06:35:55.869Z,26.70
2022-08-22T06:38:29.777Z,25.48
2022-08-22T06:41:07.064Z,24.65
2022-08-22T06:43:42.253Z,24.72
2022-08-22T06:46:12.629Z,26.71
2022-08-22T06:48:41.550Z,26.90
2022-08-22T06:51:12.663Z,25.86
2022-08-22T06:53:51.114Z,24.97
2022-08-22T06:56:25.906Z,24.28
2022-08-22T06:59:00.840Z,24.53
2022-08-22T07:01:39.476Z,26.57
2022-08-22T07:04:10.704Z,27.03
2022-08-22T07:06:47.581Z,25.95
2022-08-22T07:09:38.236Z,25.00
2022-08-22T07:12:32.059Z,24.31
2022-08-22T07:15:19.385Z,25.21
2022-08-22T07:17:57.998Z,27.19
2022-08-22T07:20:50.239Z,26.91
2022-08-22T07:23:31.928Z,25.70
2022-08-22T07:26:08.810Z,24.91
2022-08-22T07:28:51.589Z,25.00
2022-08-22T07:31:35.363Z,27.09
2022-08-22T07:34:23.301Z,27.21
2022-08-22T07:37:12.672Z,26.02
2022-08-22T07:39:56.385Z,25.08
2022-08-22T07:42:49.373Z,24.45
2022-08-22T07:45:56.145Z,25.03
2022-08-22T07:48:30.482Z,27.37
2022-08-22T07:51:05.934Z,27.22
2022-08-22T07:53:50.385Z,26.12
2022-08-22T07:56:23.553Z,25.22
2022-08-22T07:59:00.125Z,24.64
2022-08-22T08:01:29.893Z,25.60
2022-08-22T08:04:09.067Z,27.40
2022-08-22T08:06:37.859Z,27.12
2022-08-22T08:09:09.719Z,26.07
2022-08-22T08:11:42.636Z,25.24
2022-08-22T08:14:14.871Z,25.19
2022-08-22T08:16:51.237Z,27.08
2022-08-22T08:19:20.351Z,27.59
2022-08-22T08:21:53.832Z,26.60
2022-08-22T08:24:31.466Z,25.69
2022-08-22T08:27:32.574Z,24.98
2022-08-22T08:30:21.538Z,25.41
2022-08-22T08:32:59.619Z,27.51
2022-08-22T08:36:02.609Z,27.29
2022-08-22T08:38:48.522Z,26.19
2022-08-22T08:41:34.410Z,25.41
2022-08-22T08:44:30.745Z,24.87
2022-08-22T08:47:31.383Z,25.52
2022-08-22T08:50:50.138Z,27.67
2022-08-22T08:53:49.650Z,27.00
2022-08-22T08:57:00.625Z,25.87
2022-08-22T08:59:45.490Z,25.09
2022-08-22T09:02:38.650Z,25.46
2022-08-22T09:05:20.034Z,27.68
2022-08-22T09:07:55.376Z,27.68
2022-08-22T09:10:57.391Z,26.64
2022-08-22T09:13:43.088Z,25.68
2022-08-22T09:16:12.634Z,25.06
2022-08-22T09:18:59.650Z,25.34
2022-08-22T09:21:37.041Z,27.51
2022-08-22T09:24:41.285Z,27.98
2022-08-22T09:27:36.776Z,26.78
2022-08-22T09:30:27.529Z,25.90
2022-08-22T09:33:12.035Z,25.32
2022-08-22T09:36:05.359Z,25.77
2022-08-22T09:38:34.801Z,27.94
2022-08-22T09:41:18.028Z,28.00
2022-08-22T09:43:59.107Z,26.96
2022-08-22T09:46:36.723Z,26.18
2022-08-22T09:49:45.015Z,25.65
2022-08-22T09:52:42.986Z,26.24
2022-08-22T09:55:36.556Z,28.26
2022-08-22T09:58:41.551Z,27.69
2022-08-22T10:01:33.500Z,26.60
2022-08-22T10:04:04.464Z,25.92
2022-08-22T10:06:46.358Z,25.48
2022-08-22T10:09:31.176Z,25.97
2022-08-22T10:12:12.387Z,28.11
2022-08-22T10:14:56.349Z,28.32
2022-08-22T10:17:41.151Z,27.24
2022-08-22T10:20:18.351Z,26.39
2022-08-22T10:23:01.031Z,25.81
2022-08-22T10:25:48.541Z,26.06
2022-08-22T10:28:20.101Z,28.10
2022-08-22T10:30:52.361Z,28.34
2022-08-22T10:34:04.874Z,27.34
2022-08-22T10:36:54.395Z,26.31
2022-08-22T10:39:56.762Z,25.71
2022-08-22T10:42:51.829Z,26.22
2022-08-22T10:45:35.633Z,28.38
2022-08-22T10:48:10.049Z,28.23
2022-08-22T10:50:44.924Z,27.27
2022-08-22T10:53:34.972Z,26.62
2022-08-22T10:56:03.285Z,26.15
2022-08-22T10:58:37.025Z,26.33
2022-08-22T11:01:37.585Z,28.30
2022-08-22T11:04:17.577Z,28.69
2022-08-22T11:06:55.612Z,27.74
2022-08-22T11:09:42.440Z,27.10
2022-08-22T11:12:44.719Z,26.68
2022-08-22T11:15:16.556Z,26.36
2022-08-22T11:18:25.454Z,27.03
2022-08-22T11:21:05.161Z,29.15
2022-08-22T11:23:41.911Z,28.91
2022-08-22T11:26:46.575Z,28.24
2022-08-22T11:29:36.388Z,27.73
2022-08-22T11:32:15.616Z,27.50
2022-08-22T11:34:55.478Z,27.38
2022-08-22T11:37:45.244Z,27.29
2022-08-22T11:40:44.246Z,27.20
2022-08-22T11:49:14.002Z,29.94
2022-08-22T11:51:44.623Z,29.57
2022-08-22T11:54:21.956Z,28.98
2022-08-22T11:57:17.835Z,28.55
2022-08-22T11:59:45.907Z,28.30
2022-08-22T12:02:27.076Z,28.14
2022-08-22T12:05:03.964Z,27.98
2022-08-22T12:07:38.282Z,27.89
2022-08-22T12:10:13.438Z,27.83
2022-08-22T12:12:58.528Z,27.76
2022-08-22T12:15:37.416Z,27.70
2022-08-22T12:18:12.735Z,27.66
2022-08-22T12:21:09.114Z,27.63
2022-08-22T12:24:05.893Z,28.43
2022-08-22T12:26:42.454Z,30.40
2022-08-22T12:29:40.103Z,30.00
2022-08-22T12:32:49.383Z,29.24
2022-08-22T12:35:29.813Z,28.77
2022-08-22T12:38:26.681Z,28.44
2022-08-22T12:41:34.785Z,28.13
2022-08-22T12:44:17.294Z,27.88
2022-08-22T12:47:04.493Z,27.70
2022-08-22T12:50:01.202Z,27.54
2022-08-22T12:52:44.284Z,27.40
2022-08-22T12:55:25.302Z,27.33
2022-08-22T12:57:59.617Z,27.29
2022-08-22T13:00:40.353Z,27.27
2022-08-22T13:03:53.927Z,27.27
2022-08-22T13:06:35.649Z,27.26
2022-08-22T13:09:18.843Z,27.23
2022-08-22T13:11:51.551Z,27.20
2022-08-22T13:14:26.584Z,27.16
2022-08-22T13:16:59.822Z,27.13
2022-08-22T13:19:33.107Z,27.09
2022-08-22T13:22:03.981Z,27.05
2022-08-22T13:24:52.369Z,27.02
2022-08-22T13:27:32.892Z,26.98
2022-08-22T13:30:12.526Z,26.95
2022-08-22T13:32:45.728Z,26.92
2022-08-22T13:35:41.448Z,26.90
2022-08-22T13:38:35.016Z,26.92
2022-08-22T13:41:08.105Z,26.94
2022-08-22T13:44:15.380Z,26.96
2022-08-22T13:47:13.006Z,27.00
2022-08-22T13:49:51.885Z,27.05
2022-08-22T13:52:38.160Z,27.06
2022-08-22T13:55:23.994Z,27.06
2022-08-22T13:58:04.597Z,27.04
2022-08-22T14:01:14.031Z,27.02
2022-08-22T14:03:48.616Z,27.03
2022-08-22T14:06:32.811Z,27.03
2022-08-22T14:09:38.712Z,27.00
2022-08-22T14:12:12.647Z,26.97
2022-08-22T14:14:46.167Z,26.94
2022-08-22T14:17:31.702Z,26.92
2022-08-22T14:20:11.206Z,26.91
2022-08-22T14:22:43.102Z,26.89
2022-08-22T14:25:23.664Z,26.88
2022-08-22T14:28:01.224Z,26.86
2022-08-22T14:30:54.387Z,26.84
2022-08-22T14:33:39.718Z,26.85
2022-08-22T14:36:43.708Z,26.87
2022-08-22T14:39:28.063Z,26.89
2022-08-22T14:42:10.855Z,26.92
2022-08-22T14:45:06.376Z,26.97
2022-08-22T14:47:55.511Z,27.03
2022-08-22T14:50:49.744Z,27.09
2022-08-22T14:53:22.480Z,27.14
2022-08-22T14:56:17.998Z,27.17
2022-08-22T14:59:00.082Z,27.19
2022-08-22T15:01:32.919Z,27.18
2022-08-22T15:04:09.597Z,27.17
2022-08-22T15:06:51.291Z,27.14
2022-08-22T15:09:25.245Z,27.11
2022-08-22T15:11:53.418Z,27.07
2022-08-22T15:14:25.986Z,27.04
2022-08-22T15:16:56.198Z,27.00
2022-08-22T15:19:27.455Z,26.97
2022-08-22T15:22:15.146Z,26.95
2022-08-22T15:25:02.524Z,26.91
2022-08-22T15:27:34.740Z,26.89
2022-08-22T15:30:20.822Z,26.88
2022-08-22T15:32:49.930Z,26.86
2022-08-22T15:35:31.127Z,26.84
2022-08-22T15:38:05.529Z,26.83
2022-08-22T15:40:34.833Z,26.80
2022-08-22T15:43:26.765Z,26.79
2022-08-22T15:46:31.082Z,26.76
2022-08-22T15:49:22.807Z,26.75
2022-08-22T15:52:00.821Z,26.74
2022-08-22T15:54:51.282Z,26.72
2022-08-22T15:57:28.291Z,26.70
2022-08-22T15:59:58.204Z,26.68
2022-08-22T16:02:56.547Z,26.66
2022-08-22T16:05:40.431Z,26.63
2022-08-22T16:08:33.179Z,26.60
2022-08-22T16:11:04.323Z,26.57
2022-08-22T16:13:42.121Z,26.55
2022-08-22T16:16:12.241Z,26.51
2022-08-22T16:18:40.518Z,26.47
2022-08-22T16:21:11.466Z,26.44
2022-08-22T16:23:51.611Z,26.42
2022-08-22T16:26:31.766Z,26.39
2022-08-22T16:29:00.251Z,26.36
2022-08-22T16:31:28.422Z,26.30
2022-08-22T16:34:16.460Z,26.27
2022-08-22T16:37:08.811Z,27.82
2022-08-22T16:39:46.249Z,29.49
2022-08-22T16:42:14.578Z,28.88
2022-08-22T16:44:54.520Z,28.18
2022-08-22T16:47:52.728Z,27.67
2022-08-22T16:50:38.718Z,28.17
2022-08-22T16:53:06.867Z,30.22
2022-08-22T16:55:39.549Z,31.04
2022-08-22T16:58:27.298Z,30.28
2022-08-22T17:01:30.342Z,29.23
2022-08-22T17:04:17.383Z,28.55
2022-08-22T17:07:04.399Z,28.08
2022-08-22T17:09:47.730Z,28.35
2022-08-22T17:12:15.800Z,30.32
2022-08-22T17:15:06.196Z,30.99
2022-08-22T17:17:46.453Z,30.02
2022-08-22T17:20:37.462Z,29.14
2022-08-22T17:23:31.646Z,28.47
2022-08-22T17:26:20.507Z,28.76
2022-08-22T17:28:57.485Z,30.75
2022-08-22T17:31:50.338Z,31.26
2022-08-22T17:34:38.072Z,30.16
2022-08-22T17:37:29.080Z,29.23
2022-08-22T17:40:16.248Z,28.58
2022-08-22T17:42:57.014Z,28.09
2022-08-22T17:45:29.442Z,28.45
2022-08-22T17:48:15.641Z,30.31
2022-08-22T17:50:54.359Z,30.82
2022-08-22T17:53:42.298Z,29.78
2022-08-22T17:56:44.503Z,28.80
2022-08-22T17:59:20.305Z,28.07
2022-08-22T18:01:51.772Z,28.98
2022-08-22T18:04:24.454Z,30.55
2022-08-22T18:07:16.900Z,30.26
2022-08-22T18:09:55.003Z,29.09
2022-08-22T18:12:54.742Z,28.28
2022-08-22T18:15:32.310Z,29.29
2022-08-22T18:18:13.233Z,30.72
2022-08-22T18:20:51.725Z,30.23
2022-08-22T18:23:35.635Z,29.15
2022-08-22T18:26:42.524Z,28.35
2022-08-22T18:29:18.890Z,28.65
2022-08-22T18:32:33.145Z,30.44
2022-08-22T18:35:10.330Z,30.38
2022-08-22T18:38:19.438Z,29.34
2022-08-22T18:41:12.727Z,28.41
2022-08-22T18:43:48.479Z,27.83
2022-08-22T18:46:26.483Z,28.00
2022-08-22T18:49:14.597Z,29.89
2022-08-22T18:51:43.694Z,30.64
2022-08-22T18:54:11.793Z,29.71
2022-08-22T18:56:39.864Z,28.78
2022-08-22T18:59:56.886Z,28.12
2022-08-22T19:02:27.924Z,29.19
2022-08-22T19:05:01.730Z,30.60
2022-08-22T19:07:52.896Z,30.14
2022-08-22T19:10:48.924Z,29.03
2022-08-22T19:13:49.507Z,28.18
2022-08-22T19:16:32.790Z,27.63
2022-08-22T19:19:17.566Z,28.84
2022-08-22T19:22:19.768Z,30.45
2022-08-22T19:25:10.572Z,29.80
2022-08-22T19:28:10.901Z,28.72
2022-08-22T19:30:49.519Z,27.91
2022-08-22T19:33:19.947Z,28.60
2022-08-22T19:35:56.721Z,30.33
2022-08-22T19:38:57.256Z,30.34
2022-08-22T19:41:45.522Z,29.13
2022-08-22T19:44:19.306Z,28.24
2022-08-22T19:46:59.357Z,28.31
2022-08-22T19:49:32.141Z,30.10
2022-08-22T19:52:12.202Z,30.49
2022-08-22T19:55:05.556Z,29.43
2022-08-22T19:58:05.269Z,28.43
2022-08-22T20:00:53.693Z,28.56
2022-08-22T20:03:59.578Z,30.33
2022-08-22T20:06:44.982Z,30.00
2022-08-22T20:09:38.822Z,28.94
2022-08-22T20:12:42.790Z,28.09
2022-08-22T20:15:23.716Z,28.49
2022-08-22T20:20:58.497Z,30.16
2022-08-22T20:23:32.480Z,29.02
2022-08-22T20:26:01.403Z,28.20
2022-08-22T20:28:47.567Z,28.14
2022-08-22T20:31:23.724Z,29.96
2022-08-22T20:34:16.114Z,30.47
2022-08-22T20:36:52.735Z,29.18
2022-08-22T20:39:39.680Z,28.06
2022-08-22T20:42:13.559Z,27.28
2022-08-22T20:44:53.775Z,27.64
2022-08-22T20:47:34.135Z,29.47
2022-08-22T20:50:12.260Z,29.92
2022-08-22T20:52:42.947Z,28.85
2022-08-22T20:55:31.619Z,27.82
2022-08-22T20:58:04.250Z,27.74
2022-08-22T21:00:46.814Z,29.39
2022-08-22T21:03:17.901Z,29.68
2022-08-22T21:05:46.588Z,28.59
2022-08-22T21:08:19.883Z,27.65
2022-08-22T21:11:21.440Z,27.50
2022-08-22T21:13:50.892Z,29.33
2022-08-22T21:16:31.649Z,29.47
2022-08-22T21:19:01.935Z,28.28
2022-08-22T21:21:33.693Z,27.31
2022-08-22T21:24:06.011Z,26.97
2022-08-22T21:26:46.322Z,28.46
2022-08-22T21:29:14.414Z,29.23
2022-08-22T21:31:51.681Z,28.26
2022-08-22T21:34:25.078Z,27.12
2022-08-22T21:36:58.110Z,26.88
2022-08-22T21:39:36.275Z,28.48
2022-08-22T21:42:04.346Z,29.24
2022-08-22T21:44:35.591Z,28.27
2022-08-22T21:47:32.437Z,27.24
2022-08-22T21:50:12.814Z,27.45
2022-08-22T21:52:44.895Z,28.97
2022-08-22T21:55:24.211Z,28.82
2022-08-22T21:58:36.972Z,27.64
2022-08-22T22:01:28.179Z,26.71
2022-08-22T22:03:59.294Z,28.20
2022-08-22T22:06:27.919Z,29.29
2022-08-22T22:08:56.101Z,28.61
2022-08-22T22:11:24.150Z,27.55
2022-08-22T22:13:52.482Z,26.81
2022-08-22T22:16:26.108Z,27.63
2022-08-22T22:18:55.001Z,29.18
2022-08-22T22:21:23.249Z,28.88
2022-08-22T22:23:51.424Z,27.80
2022-08-22T22:26:21.247Z,26.94
2022-08-22T22:28:50.549Z,26.96
2022-08-22T22:31:18.963Z,28.62
2022-08-22T22:33:47.138Z,28.82
2022-08-22T22:36:22.684Z,27.76
2022-08-22T22:38:52.912Z,26.79
2022-08-22T22:41:25.786Z,26.65
2022-08-22T22:43:55.152Z,28.36
2022-08-22T22:46:24.398Z,28.94
2022-08-22T22:48:52.975Z,27.91
2022-08-22T22:51:21.407Z,26.89
2022-08-22T22:53:49.987Z,26.17
2022-08-22T22:56:22.494Z,26.85
2022-08-22T22:59:00.704Z,28.44
2022-08-22T23:02:07.661Z,27.92
2022-08-22T23:04:38.935Z,26.64
2022-08-22T23:07:09.129Z,26.35
2022-08-22T23:09:44.581Z,27.91
2022-08-22T23:12:14.762Z,28.43
2022-08-22T23:14:43.786Z,27.40
2022-08-22T23:17:12.677Z,26.45
2022-08-22T23:19:41.159Z,26.25
2022-08-22T23:22:11.073Z,27.87
2022-08-22T23:24:40.505Z,28.49
2022-08-22T23:27:10.493Z,27.47
2022-08-22T23:29:41.329Z,26.45
2022-08-22T23:32:11.187Z,26.25
2022-08-22T23:34:48.951Z,27.94
2022-08-22T23:37:21.519Z,28.58
2022-08-22T23:39:50.291Z,27.56
2022-08-22T23:42:19.201Z,26.63
2022-08-22T23:44:48.908Z,26.43
2022-08-22T23:47:18.515Z,28.09
2022-08-22T23:49:46.895Z,28.60
2022-08-22T23:52:15.017Z,27.59
2022-08-22T23:54:43.243Z,26.61
2022-08-22T23:57:12.056Z,26.00
2022-08-22T23:59:48.491Z,27.21
